Decoded Metar for KLHW (WRIGHT in GA, USA) (IATA:LHW) | Meteo·Mobile Aviation Weather
aviador You're here:

KLHW Decoded Metar

WRIGHT in GA, USA
Report Time2019-01-16 17:56:00
UTC Time2019-01-16 19:11:44
Flight Rules Old
Wind280° at 08 kt
W.Decomp.*RWY 24: 5.8 kt HW 5.6 kt RCW
RWY 33: 5.6 kt HW 5.8 kt LCW
W.Rank280° ranks 8
Current wind is above 280° avg. (7.3)
Visibility9999 m
Phenomena:N/A
Clouds:Few 250 Hf
Expected CloudBase > 3,600 ft AGL from Temp-Dew spread
CeilingNone
Temp12°C (ISA -3)
Dew Point03°C (54% RH)
AAT7.6°C
QNH1023 hPa
Density Alt-535 ft
Elevation46 ft
Report Wrong Elevation
Raw Report
KLHW 161756Z 28008KT 7SM FEW250 12/03 A3021 SLPNO WND DATA ESTMD
ALTMD/SLP ESTMD=

Extra information for KLHW:More info

Metar Taf Metar & Taf Last 4 Metars F.Rules Stats Wind Profile Meteogram Temp Stats Airport Information Weather charts Add Link Nearby VenuesMetar ALERT Operation Metar Decoded Social comments

AIRNAV info for KLHW